Flight Track Log - Related Links

Times and Time Zones

All times are in EDT time to prevent confusion due to time zone crossing. See the SWA2130 flight status page for this flight to view local times or setup timezone preferences in your user account.

Time Position Orientation Groundspeed Altitude Reporting Facility
EDT Latitude Longitude Course Direction KTS MPH feet Rate Location/Type
Mon 07:02:38 PM 37.6569 -122.4639 283° West 214 246 4,000  Level Oakland Center
Mon 07:03:06 PM 37.6667 -122.5167 283° West 268 308 5,900 3,787 Climbing Northern Cal TRACON
Mon 07:05:00 PM 37.5481 -122.4259 202° Southwest  Level FlightAware Approximate
Mon 07:06:42 PM 37.4675 -122.3667 133° Southeast 341 392 19,400  Level Oakland Center
Mon 07:07:43 PM 37.3997 -122.2739 133° Southeast 357 411 22,700 3,197 Climbing Oakland Center
Mon 07:08:44 PM 37.3281 -122.1772 133° Southeast 376 433 25,900 2,164 Climbing Oakland Center
Mon 07:09:45 PM 37.2403 -122.0589 133° Southeast 387 445 27,100 1,623 Climbing Oakland Center
Mon 07:10:46 PM 37.1647 -121.9542 132° Southeast 402 463 29,200 1,891 Climbing Oakland Center
Mon 07:12:00 PM 37.0746 -121.8605 133° Southeast  Level FlightAware Approximate
Mon 07:12:49 PM 36.9986 -121.7350 133° Southeast 439 505 32,900  Level Oakland Center
Mon 07:13:50 PM 36.9131 -121.6211 133° Southeast 448 516 34,800 1,623 Climbing Oakland Center
Mon 07:14:51 PM 36.8261 -121.5061 133° Southeast 454 522 36,200 1,525 Climbing Oakland Center
Mon 07:15:52 PM 36.7419 -121.3933 133° Southeast 463 533 37,900 1,377 Climbing Oakland Center
Mon 07:16:53 PM 36.6533 -121.2775 134° Southeast 463 533 39,000 541 Climbing Oakland Center
Mon 07:17:54 PM 36.5464 -121.1386 134° Southeast 462 532 39,000  Level Oakland Center
Mon 07:18:55 PM 36.4567 -121.0197 133° Southeast 469 540 39,000  Level Oakland Center
Mon 07:19:56 PM 36.3667 -120.9025 134° Southeast 470 541 39,000  Level Oakland Center
Mon 07:21:58 PM 36.1881 -120.6703 134° Southeast 465 535 39,000  Level Oakland Center
Mon 07:22:59 PM 36.0969 -120.5550 134° Southeast 467 537 39,000  Level Oakland Center
Mon 07:24:37 PM 35.9711 -120.3914 134° Southeast 466 536 39,000  Level Los Angeles Center
Mon 07:25:01 PM 35.9169 -120.3247 135° Southeast 461 531 39,000  Level Oakland Center
Mon 07:26:02 PM 35.8264 -120.2083 134° Southeast 465 535 39,000  Level Oakland Center
Mon 07:27:04 PM 35.7350 -120.0908 134° Southeast 471 542 39,000 -552 Level Oakland Center
Mon 07:28:45 PM 35.5547 -119.9008 139° Southeast 466 536 37,500 -836 Descending Los Angeles Center
Mon 07:29:06 PM 35.5333 -119.8822 145° Southeast 470 541 37,300 -878 Descending Oakland Center
Mon 07:30:07 PM 35.4253 -119.7881 145° Southeast 472 543 36,300 -991 Descending Oakland Center
Mon 07:31:01 PM 35.3167 -119.6933 145° Southeast 476 548 35,400 -991 Descending Los Angeles Center
Mon 07:32:02 PM 35.2081 -119.6006 145° Southeast 476 548 34,400 -927 Descending Los Angeles Center
Mon 07:33:04 PM 35.0992 -119.5089 145° Southeast 474 545 33,500 -1,113 Descending Los Angeles Center
Mon 07:34:06 PM 34.9919 -119.4158 145° Southeast 474 545 32,100 -1,839 Descending Los Angeles Center
Mon 07:35:08 PM 34.8881 -119.3281 145° Southeast 458 527 29,700 -2,178 Descending Los Angeles Center
Mon 07:36:21 PM 34.7875 -119.2428 145° Southeast 442 509 27,200 -2,515 Descending Los Angeles Center
Mon 07:37:24 PM 34.6533 -119.1278 145° Southeast 422 486 24,000 -2,710 Descending Los Angeles Center
Mon 07:38:25 PM 34.5539 -119.0506 147° Southeast 408 470 21,600 -2,293 Descending Los Angeles Center
Mon 07:39:27 PM 34.4661 -118.9758 145° Southeast 384 442 19,300 -2,129 Descending Los Angeles Center
Mon 07:40:29 PM 34.3819 -118.9031 144° Southeast 366 421 17,200 -2,146 Descending Los Angeles Center
Mon 07:41:30 PM 34.2928 -118.8589 158° South 343 395 14,900 -1,877 Descending Los Angeles Center
Mon 07:43:12 PM 34.1333 -118.8000 163° South 310 357 12,100 -1,500 Descending Southern California TRACON
Mon 07:43:34 PM 34.1217 -118.7950 160° South 313 360 11,800 -1,286 Descending Los Angeles Center
Mon 07:44:36 PM 34.0403 -118.7450 153° Southeast 292 336 10,300 -722 Descending Los Angeles Center
Mon 07:46:12 PM 34.0167 -118.5833 100° East 289 333 9,900 -293 Descending Southern California TRACON
Mon 07:46:39 PM 34.0181 -118.5453 87° East 285 328 9,700 -409 Descending Los Angeles Center
Mon 07:47:40 PM 34.0114 -118.4792 97° East 259 298 9,300 -634 Descending Los Angeles Center
Mon 07:48:42 PM 34.0183 -118.3886 85° East 231 266 8,400 -919 Descending Los Angeles Center
Mon 07:49:44 PM 34.0283 -118.3161 81° East 222 255 7,400 -1,226 Descending Los Angeles Center
Mon 07:51:48 PM 34.0433 -118.1778 83° East 207 238 4,600 -1,188 Descending Los Angeles Center
Mon 07:53:01 PM 34.0169 -118.1439 133° Southeast 203 234 3,500 -489 Descending Los Angeles Center
Mon 07:54:03 PM 33.9706 -118.2044 227° Southwest 204 235 3,500 -719 Level Los Angeles Center
Mon 07:56:13 PM 33.9667 -118.3333 268° West 155 178 1,200 -949 Descending Southern California TRACON
Mon 07:57:19 PM 33.9500 -118.3833 248° West 129 148 400 -727 Descending Southern California TRACON
Mon 08:00:00 PM 33.9333 -118.4000 244° Southwest  Level FlightAware Approximate
Mon 08:07:00 PM 33.9425 -118.4081 244° Southwest  Level Estimated
Mon 08:08:00 PM 33.9425 -118.4081 244° Southwest  Level Estimated
Mon 08:09:00 PM 33.9425 -118.4081 244° Southwest  Level Estimated
Mon 08:10:00 PM 33.9425 -118.4081 244° Southwest  Level Estimated
Mon 08:11:00 PM 33.9425 -118.4081 244° Southwest  Level Estimated
Mon 08:12:00 PM 33.9425 -118.4081 244° Southwest  Level Estimated
Mon 08:13:00 PM 33.9425 -118.4081 244° Southwest  Level Estimated

Login

Don't have an account? Register now (free) for customized features, flight alerts, and more!